Aviation Digital Data Service (ADDS)

Output produced by METARs form (1339 UTC 20 July 2019)
found at http://www.aviationweather.gov/metar/data/
 
METAR text: VYYY 201330Z 14003KT 7000 SCT015 FEW018CB SCT110 29/26 Q1006
Conditions at: VYYY (YANGON INTL MYAN, VN) observed 1330 UTC 20 July 2019
Temperature: 29.0°C (84°F)
Dewpoint: 26.0°C (79°F) [RH = 84%]
Pressure (altimeter): 29.70 inches Hg (1006.0 mb)
Winds: from the SE (140 degrees) at 3 MPH (3 knots; 1.5 m/s)
Visibility: 4 miles ( 7 km)
Ceiling: at least 12,000 feet AGL
Clouds: scattered clouds at 1500 feet AGL
few clouds at 1800 feet AGL
scattered clouds at 11000 feet AGL
Weather: no significant weather observed at this time

METAR text: VYYY 201300Z 16004KT 7000 SCT015 FEW018CB SCT110 29/26 Q1005
Conditions at: VYYY (YANGON INTL MYAN, VN) observed 1300 UTC 20 July 2019
Temperature: 29.0°C (84°F)
Dewpoint: 26.0°C (79°F) [RH = 84%]
Pressure (altimeter): 29.68 inches Hg (1005.0 mb)
Winds: from the SSE (160 degrees) at 5 MPH (4 knots; 2.1 m/s)
Visibility: 4 miles ( 7 km)
Ceiling: at least 12,000 feet AGL
Clouds: scattered clouds at 1500 feet AGL
few clouds at 1800 feet AGL
scattered clouds at 11000 feet AGL
Weather: no significant weather observed at this time

METAR text: VYYY 201230Z 16006KT 7000 SCT015 FEW018CB BKN110 30/24 Q1005
Conditions at: VYYY (YANGON INTL MYAN, VN) observed 1230 UTC 20 July 2019
Temperature: 30.0°C (86°F)
Dewpoint: 24.0°C (75°F) [RH = 70%]
Pressure (altimeter): 29.68 inches Hg (1005.0 mb)
Winds: from the SSE (160 degrees) at 7 MPH (6 knots; 3.1 m/s)
Visibility: 4 miles ( 7 km)
Ceiling: 11000 feet AGL
Clouds: scattered clouds at 1500 feet AGL
few clouds at 1800 feet AGL
broken clouds at 11000 feet AGL
Weather: no significant weather observed at this time

METAR text: VYYY 201200Z 14005KT 7000 SCT015 FEW018CB BKN110 31/24 Q1005
Conditions at: VYYY (YANGON INTL MYAN, VN) observed 1200 UTC 20 July 2019
Temperature: 31.0°C (88°F)
Dewpoint: 24.0°C (75°F) [RH = 66%]
Pressure (altimeter): 29.68 inches Hg (1005.0 mb)
Winds: from the SE (140 degrees) at 6 MPH (5 knots; 2.6 m/s)
Visibility: 4 miles ( 7 km)
Ceiling: 11000 feet AGL
Clouds: scattered clouds at 1500 feet AGL
few clouds at 1800 feet AGL
broken clouds at 11000 feet AGL
Weather: no significant weather observed at this time

METAR text: VYYY 201130Z 14006KT 7000 SCT015 FEW018CB 31/25 Q1004
Conditions at: VYYY (YANGON INTL MYAN, VN) observed 1130 UTC 20 July 2019
Temperature: 31.0°C (88°F)
Dewpoint: 25.0°C (77°F) [RH = 71%]
Pressure (altimeter): 29.65 inches Hg (1004.0 mb)
Winds: from the SE (140 degrees) at 7 MPH (6 knots; 3.1 m/s)
Visibility: 4 miles ( 7 km)
Ceiling: at least 12,000 feet AGL
Clouds: scattered clouds at 1500 feet AGL
few clouds at 1800 feet AGL
Weather: no significant weather observed at this time

METAR text: VYYY 201100Z 20006KT 8000 SCT015 FEW018CB 32/23 Q1004
Conditions at: VYYY (YANGON INTL MYAN, VN) observed 1100 UTC 20 July 2019
Temperature: 32.0°C (90°F)
Dewpoint: 23.0°C (73°F) [RH = 59%]
Pressure (altimeter): 29.65 inches Hg (1004.0 mb)
Winds: from the SSW (200 degrees) at 7 MPH (6 knots; 3.1 m/s)
Visibility: 5 miles ( 8 km)
Ceiling: at least 12,000 feet AGL
Clouds: scattered clouds at 1500 feet AGL
few clouds at 1800 feet AGL
Weather: no significant weather observed at this time

METAR text: VYYY 201030Z 15004KT 8000 FEW018 33/22 Q1004
Conditions at: VYYY (YANGON INTL MYAN, VN) observed 1030 UTC 20 July 2019
Temperature: 33.0°C (91°F)
Dewpoint: 22.0°C (72°F) [RH = 53%]
Pressure (altimeter): 29.65 inches Hg (1004.0 mb)
Winds: from the SSE (150 degrees) at 5 MPH (4 knots; 2.1 m/s)
Visibility: 5 miles ( 8 km)
Ceiling: at least 12,000 feet AGL
Clouds: few clouds at 1800 feet AGL
Weather: no significant weather observed at this time

METAR text: VYYY 200930Z 15008KT 8000 SCT015 FEW020CB 33/22 Q1004
Conditions at: VYYY (YANGON INTL MYAN, VN) observed 0930 UTC 20 July 2019
Temperature: 33.0°C (91°F)
Dewpoint: 22.0°C (72°F) [RH = 53%]
Pressure (altimeter): 29.65 inches Hg (1004.0 mb)
Winds: from the SSE (150 degrees) at 9 MPH (8 knots; 4.1 m/s)
Visibility: 5 miles ( 8 km)
Ceiling: at least 12,000 feet AGL
Clouds: scattered clouds at 1500 feet AGL
few clouds at 2000 feet AGL
Weather: no significant weather observed at this time

METAR text: VYYY 200900Z 16006KT 8000 SCT015 FEW020CB 33/22 Q1004
Conditions at: VYYY (YANGON INTL MYAN, VN) observed 0900 UTC 20 July 2019
Temperature: 33.0°C (91°F)
Dewpoint: 22.0°C (72°F) [RH = 53%]
Pressure (altimeter): 29.65 inches Hg (1004.0 mb)
Winds: from the SSE (160 degrees) at 7 MPH (6 knots; 3.1 m/s)
Visibility: 5 miles ( 8 km)
Ceiling: at least 12,000 feet AGL
Clouds: scattered clouds at 1500 feet AGL
few clouds at 2000 feet AGL
Weather: no significant weather observed at this time

METAR text: VYYY 200830Z 18006KT 8000 SCT015 FEW020CB 33/25 Q1004
Conditions at: VYYY (YANGON INTL MYAN, VN) observed 0830 UTC 20 July 2019
Temperature: 33.0°C (91°F)
Dewpoint: 25.0°C (77°F) [RH = 63%]
Pressure (altimeter): 29.65 inches Hg (1004.0 mb)
Winds: from the S (180 degrees) at 7 MPH (6 knots; 3.1 m/s)
Visibility: 5 miles ( 8 km)
Ceiling: at least 12,000 feet AGL
Clouds: scattered clouds at 1500 feet AGL
few clouds at 2000 feet AGL
Weather: no significant weather observed at this time

METAR text: VYYY 200800Z 20006KT 8000 BKN015 FEW020CB 33/25 Q1005
Conditions at: VYYY (YANGON INTL MYAN, VN) observed 0800 UTC 20 July 2019
Temperature: 33.0°C (91°F)
Dewpoint: 25.0°C (77°F) [RH = 63%]
Pressure (altimeter): 29.68 inches Hg (1005.0 mb)
Winds: from the SSW (200 degrees) at 7 MPH (6 knots; 3.1 m/s)
Visibility: 5 miles ( 8 km)
Ceiling: 1500 feet AGL
Clouds: broken clouds at 1500 feet AGL
few clouds at 2000 feet AGL
Weather: no significant weather observed at this time

METAR text: VYYY 200730Z 15006KT 8000 BKN015 FEW020CB 32/25 Q1006
Conditions at: VYYY (YANGON INTL MYAN, VN) observed 0730 UTC 20 July 2019
Temperature: 32.0°C (90°F)
Dewpoint: 25.0°C (77°F) [RH = 67%]
Pressure (altimeter): 29.70 inches Hg (1006.0 mb)
Winds: from the SSE (150 degrees) at 7 MPH (6 knots; 3.1 m/s)
Visibility: 5 miles ( 8 km)
Ceiling: 1500 feet AGL
Clouds: broken clouds at 1500 feet AGL
few clouds at 2000 feet AGL
Weather: no significant weather observed at this time

METAR text: VYYY 200700Z 16004KT 8000 SCT015 FEW020CB 32/25 Q1006
Conditions at: VYYY (YANGON INTL MYAN, VN) observed 0700 UTC 20 July 2019
Temperature: 32.0°C (90°F)
Dewpoint: 25.0°C (77°F) [RH = 67%]
Pressure (altimeter): 29.70 inches Hg (1006.0 mb)
Winds: from the SSE (160 degrees) at 5 MPH (4 knots; 2.1 m/s)
Visibility: 5 miles ( 8 km)
Ceiling: at least 12,000 feet AGL
Clouds: scattered clouds at 1500 feet AGL
few clouds at 2000 feet AGL
Weather: no significant weather observed at this time

METAR text: VYYY 200630Z 15004KT 8000 SCT015 FEW020CB 32/25 Q1006
Conditions at: VYYY (YANGON INTL MYAN, VN) observed 0630 UTC 20 July 2019
Temperature: 32.0°C (90°F)
Dewpoint: 25.0°C (77°F) [RH = 67%]
Pressure (altimeter): 29.70 inches Hg (1006.0 mb)
Winds: from the SSE (150 degrees) at 5 MPH (4 knots; 2.1 m/s)
Visibility: 5 miles ( 8 km)
Ceiling: at least 12,000 feet AGL
Clouds: scattered clouds at 1500 feet AGL
few clouds at 2000 feet AGL
Weather: no significant weather observed at this time

METAR text: VYYY 200600Z 11004KT 8000 BKN015 FEW020CB 32/25 Q1007
Conditions at: VYYY (YANGON INTL MYAN, VN) observed 0600 UTC 20 July 2019
Temperature: 32.0°C (90°F)
Dewpoint: 25.0°C (77°F) [RH = 67%]
Pressure (altimeter): 29.73 inches Hg (1007.0 mb)
Winds: from the ESE (110 degrees) at 5 MPH (4 knots; 2.1 m/s)
Visibility: 5 miles ( 8 km)
Ceiling: 1500 feet AGL
Clouds: broken clouds at 1500 feet AGL
few clouds at 2000 feet AGL
Weather: no significant weather observed at this time

METAR text: VYYY 200530Z 21005KT 8000 SCT015 FEW020CB 32/25 Q1007
Conditions at: VYYY (YANGON INTL MYAN, VN) observed 0530 UTC 20 July 2019
Temperature: 32.0°C (90°F)
Dewpoint: 25.0°C (77°F) [RH = 67%]
Pressure (altimeter): 29.73 inches Hg (1007.0 mb)
Winds: from the SSW (210 degrees) at 6 MPH (5 knots; 2.6 m/s)
Visibility: 5 miles ( 8 km)
Ceiling: at least 12,000 feet AGL
Clouds: scattered clouds at 1500 feet AGL
few clouds at 2000 feet AGL
Weather: no significant weather observed at this time

METAR text: VYYY 200500Z 15005KT 8000 SCT015 FEW020CB 31/25 Q1008
Conditions at: VYYY (YANGON INTL MYAN, VN) observed 0500 UTC 20 July 2019
Temperature: 31.0°C (88°F)
Dewpoint: 25.0°C (77°F) [RH = 71%]
Pressure (altimeter): 29.76 inches Hg (1008.0 mb)
Winds: from the SSE (150 degrees) at 6 MPH (5 knots; 2.6 m/s)
Visibility: 5 miles ( 8 km)
Ceiling: at least 12,000 feet AGL
Clouds: scattered clouds at 1500 feet AGL
few clouds at 2000 feet AGL
Weather: no significant weather observed at this time

METAR text: VYYY 200430Z 18006KT 8000 SCT015 FEW020CB 31/25 Q1007
Conditions at: VYYY (YANGON INTL MYAN, VN) observed 0430 UTC 20 July 2019
Temperature: 31.0°C (88°F)
Dewpoint: 25.0°C (77°F) [RH = 71%]
Pressure (altimeter): 29.73 inches Hg (1007.0 mb)
Winds: from the S (180 degrees) at 7 MPH (6 knots; 3.1 m/s)
Visibility: 5 miles ( 8 km)
Ceiling: at least 12,000 feet AGL
Clouds: scattered clouds at 1500 feet AGL
few clouds at 2000 feet AGL
Weather: no significant weather observed at this time

METAR text: VYYY 200400Z 18005KT 8000 SCT015 FEW020CB 31/25 Q1008
Conditions at: VYYY (YANGON INTL MYAN, VN) observed 0400 UTC 20 July 2019
Temperature: 31.0°C (88°F)
Dewpoint: 25.0°C (77°F) [RH = 71%]
Pressure (altimeter): 29.76 inches Hg (1008.0 mb)
Winds: from the S (180 degrees) at 6 MPH (5 knots; 2.6 m/s)
Visibility: 5 miles ( 8 km)
Ceiling: at least 12,000 feet AGL
Clouds: scattered clouds at 1500 feet AGL
few clouds at 2000 feet AGL
Weather: no significant weather observed at this time

METAR text: VYYY 200330Z 16003KT 8000 BKN018 FEW025CB 31/25 Q1007
Conditions at: VYYY (YANGON INTL MYAN, VN) observed 0330 UTC 20 July 2019
Temperature: 31.0°C (88°F)
Dewpoint: 25.0°C (77°F) [RH = 71%]
Pressure (altimeter): 29.73 inches Hg (1007.0 mb)
Winds: from the SSE (160 degrees) at 3 MPH (3 knots; 1.5 m/s)
Visibility: 5 miles ( 8 km)
Ceiling: 1800 feet AGL
Clouds: broken clouds at 1800 feet AGL
few clouds at 2500 feet AGL
Weather: no significant weather observed at this time

METAR text: VYYY 200300Z 21003KT 8000 BKN018 FEW025TCU 30/24 Q1007 NOSIG
Conditions at: VYYY (YANGON INTL MYAN, VN) observed 0300 UTC 20 July 2019
Temperature: 30.0°C (86°F)
Dewpoint: 24.0°C (75°F) [RH = 70%]
Pressure (altimeter): 29.73 inches Hg (1007.0 mb)
Winds: from the SSW (210 degrees) at 3 MPH (3 knots; 1.5 m/s)
Visibility: 5 miles ( 8 km)
Ceiling: 1800 feet AGL
Clouds: broken clouds at 1800 feet AGL
few clouds at 2500 feet AGL
Weather: no significant weather observed at this time

METAR text: VYYY 200230Z 19002KT 8000 BKN018 FEW025TCU 29/24 Q1007 BECMG AT 0300 BKN015
Conditions at: VYYY (YANGON INTL MYAN, VN) observed 0230 UTC 20 July 2019
Temperature: 29.0°C (84°F)
Dewpoint: 24.0°C (75°F) [RH = 74%]
Pressure (altimeter): 29.73 inches Hg (1007.0 mb)
Winds: from the S (190 degrees) at 2 MPH (2 knots; 1.0 m/s)
Visibility: 5 miles ( 8 km)
Ceiling: 1800 feet AGL
Clouds: broken clouds at 1800 feet AGL
few clouds at 2500 feet AGL
Weather: no significant weather observed at this time

METAR text: VYYY 200200Z 19007KT 8000 SCT020 FEW025TCU SCT110 29/23 Q1007 BECMG AT 0200 6000 BKN016
Conditions at: VYYY (YANGON INTL MYAN, VN) observed 0200 UTC 20 July 2019
Temperature: 29.0°C (84°F)
Dewpoint: 23.0°C (73°F) [RH = 70%]
Pressure (altimeter): 29.73 inches Hg (1007.0 mb)
Winds: from the S (190 degrees) at 8 MPH (7 knots; 3.6 m/s)
Visibility: 5 miles ( 8 km)
Ceiling: at least 12,000 feet AGL
Clouds: scattered clouds at 2000 feet AGL
few clouds at 2500 feet AGL
scattered clouds at 11000 feet AGL
Weather: no significant weather observed at this time

METAR text: VYYY 200130Z 16005KT 7000 SCT020 FEW025TCU 29/23 Q1007 BECMG AT0200 6000 BKN016
Conditions at: VYYY (YANGON INTL MYAN, VN) observed 0130 UTC 20 July 2019
Temperature: 29.0°C (84°F)
Dewpoint: 23.0°C (73°F) [RH = 70%]
Pressure (altimeter): 29.73 inches Hg (1007.0 mb)
Winds: from the SSE (160 degrees) at 6 MPH (5 knots; 2.6 m/s)
Visibility: 4 miles ( 7 km)
Ceiling: at least 12,000 feet AGL
Clouds: scattered clouds at 2000 feet AGL
few clouds at 2500 feet AGL
Weather: no significant weather observed at this time

METAR text: VYYY 200100Z 14002KT 7000 SCT018 FEW025TCU 28/25 Q1006 NOSIG
Conditions at: VYYY (YANGON INTL MYAN, VN) observed 0100 UTC 20 July 2019
Temperature: 28.0°C (82°F)
Dewpoint: 25.0°C (77°F) [RH = 84%]
Pressure (altimeter): 29.70 inches Hg (1006.0 mb)
Winds: from the SE (140 degrees) at 2 MPH (2 knots; 1.0 m/s)
Visibility: 4 miles ( 7 km)
Ceiling: at least 12,000 feet AGL
Clouds: scattered clouds at 1800 feet AGL
few clouds at 2500 feet AGL
Weather: no significant weather observed at this time

METAR text: VYYY 200030Z 13001KT 7000 FEW020 28/25 Q1006 NOSIG
Conditions at: VYYY (YANGON INTL MYAN, VN) observed 0030 UTC 20 July 2019
Temperature: 28.0°C (82°F)
Dewpoint: 25.0°C (77°F) [RH = 84%]
Pressure (altimeter): 29.70 inches Hg (1006.0 mb)
Winds: from the SE (130 degrees) at 1 MPH (1 knots; 0.5 m/s)
Visibility: 4 miles ( 7 km)
Ceiling: at least 12,000 feet AGL
Clouds: few clouds at 2000 feet AGL
Weather: no significant weather observed at this time

METAR text: VYYY 200000Z 35001KT 7000 SCT018 SCT100 27/24 Q1006 NOSIG
Conditions at: VYYY (YANGON INTL MYAN, VN) observed 0000 UTC 20 July 2019
Temperature: 27.0°C (81°F)
Dewpoint: 24.0°C (75°F) [RH = 84%]
Pressure (altimeter): 29.70 inches Hg (1006.0 mb)
Winds: from the N (350 degrees) at 1 MPH (1 knots; 0.5 m/s)
Visibility: 4 miles ( 7 km)
Ceiling: at least 12,000 feet AGL
Clouds: scattered clouds at 1800 feet AGL
scattered clouds at 10000 feet AGL
Weather: no significant weather observed at this time

METAR text: VYYY 192330Z 31001KT 6000 SCT018 SCT100 27/24 Q1006 NOSIG
Conditions at: VYYY (YANGON INTL MYAN, VN) observed 2330 UTC 19 July 2019
Temperature: 27.0°C (81°F)
Dewpoint: 24.0°C (75°F) [RH = 84%]
Pressure (altimeter): 29.70 inches Hg (1006.0 mb)
Winds: from the NW (310 degrees) at 1 MPH (1 knots; 0.5 m/s)
Visibility: 4 miles ( 6 km)
Ceiling: at least 12,000 feet AGL
Clouds: scattered clouds at 1800 feet AGL
scattered clouds at 10000 feet AGL
Weather: no significant weather observed at this time

METAR text: VYYY 192300Z 32002KT 6000 FEW020 SCT110 26/23 Q1005 NOSIG
Conditions at: VYYY (YANGON INTL MYAN, VN) observed 2300 UTC 19 July 2019
Temperature: 26.0°C (79°F)
Dewpoint: 23.0°C (73°F) [RH = 84%]
Pressure (altimeter): 29.68 inches Hg (1005.0 mb)
Winds: from the NW (320 degrees) at 2 MPH (2 knots; 1.0 m/s)
Visibility: 4 miles ( 6 km)
Ceiling: at least 12,000 feet AGL
Clouds: few clouds at 2000 feet AGL
scattered clouds at 11000 feet AGL
Weather: no significant weather observed at this time

METAR text: VYYY 192230Z 19001KT 6000 FEW020 SCT110 26/23 Q1005 NOSIG
Conditions at: VYYY (YANGON INTL MYAN, VN) observed 2230 UTC 19 July 2019
Temperature: 26.0°C (79°F)
Dewpoint: 23.0°C (73°F) [RH = 84%]
Pressure (altimeter): 29.68 inches Hg (1005.0 mb)
Winds: from the S (190 degrees) at 1 MPH (1 knots; 0.5 m/s)
Visibility: 4 miles ( 6 km)
Ceiling: at least 12,000 feet AGL
Clouds: few clouds at 2000 feet AGL
scattered clouds at 11000 feet AGL
Weather: no significant weather observed at this time

METAR text: VYYY 192200Z 36001KT 6000 FEW020 SCT110 26/23 Q1005 NOSIG
Conditions at: VYYY (YANGON INTL MYAN, VN) observed 2200 UTC 19 July 2019
Temperature: 26.0°C (79°F)
Dewpoint: 23.0°C (73°F) [RH = 84%]
Pressure (altimeter): 29.68 inches Hg (1005.0 mb)
Winds: from the N (360 degrees) at 1 MPH (1 knots; 0.5 m/s)
Visibility: 4 miles ( 6 km)
Ceiling: at least 12,000 feet AGL
Clouds: few clouds at 2000 feet AGL
scattered clouds at 11000 feet AGL
Weather: no significant weather observed at this time

METAR text: VYYY 192130Z 13002KT 6000 SCT018 SCT110 26/24 Q1004 NOSIG
Conditions at: VYYY (YANGON INTL MYAN, VN) observed 2130 UTC 19 July 2019
Temperature: 26.0°C (79°F)
Dewpoint: 24.0°C (75°F) [RH = 89%]
Pressure (altimeter): 29.65 inches Hg (1004.0 mb)
Winds: from the SE (130 degrees) at 2 MPH (2 knots; 1.0 m/s)
Visibility: 4 miles ( 6 km)
Ceiling: at least 12,000 feet AGL
Clouds: scattered clouds at 1800 feet AGL
scattered clouds at 11000 feet AGL
Weather: no significant weather observed at this time

METAR text: VYYY 192100Z 15002KT 6000 SCT018 SCT110 26/24 Q1004 NOSIG
Conditions at: VYYY (YANGON INTL MYAN, VN) observed 2100 UTC 19 July 2019
Temperature: 26.0°C (79°F)
Dewpoint: 24.0°C (75°F) [RH = 89%]
Pressure (altimeter): 29.65 inches Hg (1004.0 mb)
Winds: from the SSE (150 degrees) at 2 MPH (2 knots; 1.0 m/s)
Visibility: 4 miles ( 6 km)
Ceiling: at least 12,000 feet AGL
Clouds: scattered clouds at 1800 feet AGL
scattered clouds at 11000 feet AGL
Weather: no significant weather observed at this time

METAR text: VYYY 192030Z 11002KT 6000 SCT018 SCT110 26/24 Q1004 NOSIG
Conditions at: VYYY (YANGON INTL MYAN, VN) observed 2030 UTC 19 July 2019
Temperature: 26.0°C (79°F)
Dewpoint: 24.0°C (75°F) [RH = 89%]
Pressure (altimeter): 29.65 inches Hg (1004.0 mb)
Winds: from the ESE (110 degrees) at 2 MPH (2 knots; 1.0 m/s)
Visibility: 4 miles ( 6 km)
Ceiling: at least 12,000 feet AGL
Clouds: scattered clouds at 1800 feet AGL
scattered clouds at 11000 feet AGL
Weather: no significant weather observed at this time

METAR text: VYYY 192000Z 23002KT 6000 SCT018 SCT110 26/24 Q1005 NOSIG
Conditions at: VYYY (YANGON INTL MYAN, VN) observed 2000 UTC 19 July 2019
Temperature: 26.0°C (79°F)
Dewpoint: 24.0°C (75°F) [RH = 89%]
Pressure (altimeter): 29.68 inches Hg (1005.0 mb)
Winds: from the SW (230 degrees) at 2 MPH (2 knots; 1.0 m/s)
Visibility: 4 miles ( 6 km)
Ceiling: at least 12,000 feet AGL
Clouds: scattered clouds at 1800 feet AGL
scattered clouds at 11000 feet AGL
Weather: no significant weather observed at this time

METAR text: VYYY 191830Z 24006KT 6000 SCT016 SCT110 26/24 Q1006 NOSIG
Conditions at: VYYY (YANGON INTL MYAN, VN) observed 1830 UTC 19 July 2019
Temperature: 26.0°C (79°F)
Dewpoint: 24.0°C (75°F) [RH = 89%]
Pressure (altimeter): 29.70 inches Hg (1006.0 mb)
Winds: from the WSW (240 degrees) at 7 MPH (6 knots; 3.1 m/s)
Visibility: 4 miles ( 6 km)
Ceiling: at least 12,000 feet AGL
Clouds: scattered clouds at 1600 feet AGL
scattered clouds at 11000 feet AGL
Weather: no significant weather observed at this time

METAR text: VYYY 191800Z 22006KT 6000 FEW018 SCT110 27/24 Q1006 NOSIG
Conditions at: VYYY (YANGON INTL MYAN, VN) observed 1800 UTC 19 July 2019
Temperature: 27.0°C (81°F)
Dewpoint: 24.0°C (75°F) [RH = 84%]
Pressure (altimeter): 29.70 inches Hg (1006.0 mb)
Winds: from the SW (220 degrees) at 7 MPH (6 knots; 3.1 m/s)
Visibility: 4 miles ( 6 km)
Ceiling: at least 12,000 feet AGL
Clouds: few clouds at 1800 feet AGL
scattered clouds at 11000 feet AGL
Weather: no significant weather observed at this time

METAR text: VYYY 191730Z 19005KT 6000 FEW018 SCT110 27/24 Q1006 NOSIG
Conditions at: VYYY (YANGON INTL MYAN, VN) observed 1730 UTC 19 July 2019
Temperature: 27.0°C (81°F)
Dewpoint: 24.0°C (75°F) [RH = 84%]
Pressure (altimeter): 29.70 inches Hg (1006.0 mb)
Winds: from the S (190 degrees) at 6 MPH (5 knots; 2.6 m/s)
Visibility: 4 miles ( 6 km)
Ceiling: at least 12,000 feet AGL
Clouds: few clouds at 1800 feet AGL
scattered clouds at 11000 feet AGL
Weather: no significant weather observed at this time

METAR text: VYYY 191700Z 18004KT 6000 FEW0180 SCT110 27/24 Q1006 NOSIG
Conditions at: VYYY (YANGON INTL MYAN, VN) observed 1700 UTC 19 July 2019
Temperature: 27.0°C (81°F)
Dewpoint: 24.0°C (75°F) [RH = 84%]
Pressure (altimeter): 29.70 inches Hg (1006.0 mb)
Winds: from the S (180 degrees) at 5 MPH (4 knots; 2.1 m/s)
Visibility: 4 miles ( 6 km)
Ceiling: at least 12,000 feet AGL
Clouds: scattered clouds at 11000 feet AGL
Weather: no significant weather observed at this time

METAR text: VYYY 191630Z 17002KT 7000 FEW020 SCT110 27/24 Q1006 NOSIG
Conditions at: VYYY (YANGON INTL MYAN, VN) observed 1630 UTC 19 July 2019
Temperature: 27.0°C (81°F)
Dewpoint: 24.0°C (75°F) [RH = 84%]
Pressure (altimeter): 29.70 inches Hg (1006.0 mb)
Winds: from the S (170 degrees) at 2 MPH (2 knots; 1.0 m/s)
Visibility: 4 miles ( 7 km)
Ceiling: at least 12,000 feet AGL
Clouds: few clouds at 2000 feet AGL
scattered clouds at 11000 feet AGL
Weather: no significant weather observed at this time

METAR text: VYYY 191600Z 16003KT 7000 FEW020 SCT110 27/24 Q1006 NOSIG
Conditions at: VYYY (YANGON INTL MYAN, VN) observed 1600 UTC 19 July 2019
Temperature: 27.0°C (81°F)
Dewpoint: 24.0°C (75°F) [RH = 84%]
Pressure (altimeter): 29.70 inches Hg (1006.0 mb)
Winds: from the SSE (160 degrees) at 3 MPH (3 knots; 1.5 m/s)
Visibility: 4 miles ( 7 km)
Ceiling: at least 12,000 feet AGL
Clouds: few clouds at 2000 feet AGL
scattered clouds at 11000 feet AGL
Weather: no significant weather observed at this time

METAR text: VYYY 191530Z 21004KT 7000 FEW020 SCT110 27/24 Q1006 NOSIG
Conditions at: VYYY (YANGON INTL MYAN, VN) observed 1530 UTC 19 July 2019
Temperature: 27.0°C (81°F)
Dewpoint: 24.0°C (75°F) [RH = 84%]
Pressure (altimeter): 29.70 inches Hg (1006.0 mb)
Winds: from the SSW (210 degrees) at 5 MPH (4 knots; 2.1 m/s)
Visibility: 4 miles ( 7 km)
Ceiling: at least 12,000 feet AGL
Clouds: few clouds at 2000 feet AGL
scattered clouds at 11000 feet AGL
Weather: no significant weather observed at this time

METAR text: VYYY 191500Z 21004KT 7000 SCT018 FEW025CB BKN110 27/24 Q1006 NOSIG
Conditions at: VYYY (YANGON INTL MYAN, VN) observed 1500 UTC 19 July 2019
Temperature: 27.0°C (81°F)
Dewpoint: 24.0°C (75°F) [RH = 84%]
Pressure (altimeter): 29.70 inches Hg (1006.0 mb)
Winds: from the SSW (210 degrees) at 5 MPH (4 knots; 2.1 m/s)
Visibility: 4 miles ( 7 km)
Ceiling: 11000 feet AGL
Clouds: scattered clouds at 1800 feet AGL
few clouds at 2500 feet AGL
broken clouds at 11000 feet AGL
Weather: no significant weather observed at this time

METAR text: VYYY 191430Z 21004KT 7000 SCT018 FEW025CB BKN110 27/24 Q1005 NOSIG
Conditions at: VYYY (YANGON INTL MYAN, VN) observed 1430 UTC 19 July 2019
Temperature: 27.0°C (81°F)
Dewpoint: 24.0°C (75°F) [RH = 84%]
Pressure (altimeter): 29.68 inches Hg (1005.0 mb)
Winds: from the SSW (210 degrees) at 5 MPH (4 knots; 2.1 m/s)
Visibility: 4 miles ( 7 km)
Ceiling: 11000 feet AGL
Clouds: scattered clouds at 1800 feet AGL
few clouds at 2500 feet AGL
broken clouds at 11000 feet AGL
Weather: no significant weather observed at this time

METAR text: VYYY 191400Z 21005KT 7000 BKN018 FEW025CB BKN110 27/24 Q1005 NOSIG
Conditions at: VYYY (YANGON INTL MYAN, VN) observed 1400 UTC 19 July 2019
Temperature: 27.0°C (81°F)
Dewpoint: 24.0°C (75°F) [RH = 84%]
Pressure (altimeter): 29.68 inches Hg (1005.0 mb)
Winds: from the SSW (210 degrees) at 6 MPH (5 knots; 2.6 m/s)
Visibility: 4 miles ( 7 km)
Ceiling: 1800 feet AGL
Clouds: broken clouds at 1800 feet AGL
few clouds at 2500 feet AGL
broken clouds at 11000 feet AGL
Weather: no significant weather observed at this time

METAR text: VYYY 191330Z 19007KT 7000 BKN018 FEW025CB BKN110 27/24 Q1005 NOSIG
Conditions at: VYYY (YANGON INTL MYAN, VN) observed 1330 UTC 19 July 2019
Temperature: 27.0°C (81°F)
Dewpoint: 24.0°C (75°F) [RH = 84%]
Pressure (altimeter): 29.68 inches Hg (1005.0 mb)
Winds: from the S (190 degrees) at 8 MPH (7 knots; 3.6 m/s)
Visibility: 4 miles ( 7 km)
Ceiling: 1800 feet AGL
Clouds: broken clouds at 1800 feet AGL
few clouds at 2500 feet AGL
broken clouds at 11000 feet AGL
Weather: no significant weather observed at this time

METAR text: VYYY 191300Z 20007KT 7000 BKN016 FEW020CB BKN110 28/25 Q1004 NOSIG
Conditions at: VYYY (YANGON INTL MYAN, VN) observed 1300 UTC 19 July 2019
Temperature: 28.0°C (82°F)
Dewpoint: 25.0°C (77°F) [RH = 84%]
Pressure (altimeter): 29.65 inches Hg (1004.0 mb)
Winds: from the SSW (200 degrees) at 8 MPH (7 knots; 3.6 m/s)
Visibility: 4 miles ( 7 km)
Ceiling: 1600 feet AGL
Clouds: broken clouds at 1600 feet AGL
few clouds at 2000 feet AGL
broken clouds at 11000 feet AGL
Weather: no significant weather observed at this time

METAR text: VYYY 191230Z 20006KT 7000 BKN016 FEW020CB BKN110 28/25 Q1004 NOSIG
Conditions at: VYYY (YANGON INTL MYAN, VN) observed 1230 UTC 19 July 2019
Temperature: 28.0°C (82°F)
Dewpoint: 25.0°C (77°F) [RH = 84%]
Pressure (altimeter): 29.65 inches Hg (1004.0 mb)
Winds: from the SSW (200 degrees) at 7 MPH (6 knots; 3.1 m/s)
Visibility: 4 miles ( 7 km)
Ceiling: 1600 feet AGL
Clouds: broken clouds at 1600 feet AGL
few clouds at 2000 feet AGL
broken clouds at 11000 feet AGL
Weather: no significant weather observed at this time

METAR text: VYYY 191200Z 17003KT 7000 BKN015 FEW020CB BKN100 28/25 Q1004 BECMG 5000 -RA
Conditions at: VYYY (YANGON INTL MYAN, VN) observed 1200 UTC 19 July 2019
Temperature: 28.0°C (82°F)
Dewpoint: 25.0°C (77°F) [RH = 84%]
Pressure (altimeter): 29.65 inches Hg (1004.0 mb)
Winds: from the S (170 degrees) at 3 MPH (3 knots; 1.5 m/s)
Visibility: 4 miles ( 7 km)
Ceiling: 1500 feet AGL
Clouds: broken clouds at 1500 feet AGL
few clouds at 2000 feet AGL
broken clouds at 10000 feet AGL
Weather: no significant weather observed at this time

METAR text: VYYY 191130Z 21007KT 7000 BKN015 FEW020CB BKN100 28/25 Q1004 BECMG 5000 -RA
Conditions at: VYYY (YANGON INTL MYAN, VN) observed 1130 UTC 19 July 2019
Temperature: 28.0°C (82°F)
Dewpoint: 25.0°C (77°F) [RH = 84%]
Pressure (altimeter): 29.65 inches Hg (1004.0 mb)
Winds: from the SSW (210 degrees) at 8 MPH (7 knots; 3.6 m/s)
Visibility: 4 miles ( 7 km)
Ceiling: 1500 feet AGL
Clouds: broken clouds at 1500 feet AGL
few clouds at 2000 feet AGL
broken clouds at 10000 feet AGL
Weather: no significant weather observed at this time

METAR text: VYYY 191100Z 20010G20KT 6000 BKN013 FEW018CB BKN100 28/27 Q1003 BECMG 4000 RA
Conditions at: VYYY (YANGON INTL MYAN, VN) observed 1100 UTC 19 July 2019
Temperature: 28.0°C (82°F)
Dewpoint: 27.0°C (81°F) [RH = 94%]
Pressure (altimeter): 29.62 inches Hg (1003.0 mb)
Winds: from the SSW (200 degrees) at 12 MPH (10 knots; 5.1 m/s)
gusting to 23 MPH (20 knots; 10.3 m/s)
Visibility: 4 miles ( 6 km)
Ceiling: 1300 feet AGL
Clouds: broken clouds at 1300 feet AGL
few clouds at 1800 feet AGL
broken clouds at 10000 feet AGL
Weather: no significant weather observed at this time

METAR text: VYYY 191030Z 13005KT 7000 BKN015 FEW020CB BKN100 29/26 Q1003 BECMG 4000 RA
Conditions at: VYYY (YANGON INTL MYAN, VN) observed 1030 UTC 19 July 2019
Temperature: 29.0°C (84°F)
Dewpoint: 26.0°C (79°F) [RH = 84%]
Pressure (altimeter): 29.62 inches Hg (1003.0 mb)
Winds: from the SE (130 degrees) at 6 MPH (5 knots; 2.6 m/s)
Visibility: 4 miles ( 7 km)
Ceiling: 1500 feet AGL
Clouds: broken clouds at 1500 feet AGL
few clouds at 2000 feet AGL
broken clouds at 10000 feet AGL
Weather: no significant weather observed at this time

METAR text: VYYY 191000Z 25004KT 7000 BKN015 FEW020CB BKN100 29/26 Q1003 NOSIG
Conditions at: VYYY (YANGON INTL MYAN, VN) observed 1000 UTC 19 July 2019
Temperature: 29.0°C (84°F)
Dewpoint: 26.0°C (79°F) [RH = 84%]
Pressure (altimeter): 29.62 inches Hg (1003.0 mb)
Winds: from the WSW (250 degrees) at 5 MPH (4 knots; 2.1 m/s)
Visibility: 4 miles ( 7 km)
Ceiling: 1500 feet AGL
Clouds: broken clouds at 1500 feet AGL
few clouds at 2000 feet AGL
broken clouds at 10000 feet AGL
Weather: no significant weather observed at this time

METAR text: VYYY 190930Z 23004KT 7000 BKN013 FEW018CB BKN100 29/26 Q1004
Conditions at: VYYY (YANGON INTL MYAN, VN) observed 0930 UTC 19 July 2019
Temperature: 29.0°C (84°F)
Dewpoint: 26.0°C (79°F) [RH = 84%]
Pressure (altimeter): 29.65 inches Hg (1004.0 mb)
Winds: from the SW (230 degrees) at 5 MPH (4 knots; 2.1 m/s)
Visibility: 4 miles ( 7 km)
Ceiling: 1300 feet AGL
Clouds: broken clouds at 1300 feet AGL
few clouds at 1800 feet AGL
broken clouds at 10000 feet AGL
Weather: no significant weather observed at this time

METAR text: VYYY 190900Z 21004KT 6000 -RA BKN013 FEW018CB BKN090 29/26 Q1004
Conditions at: VYYY (YANGON INTL MYAN, VN) observed 0900 UTC 19 July 2019
Temperature: 29.0°C (84°F)
Dewpoint: 26.0°C (79°F) [RH = 84%]
Pressure (altimeter): 29.65 inches Hg (1004.0 mb)
Winds: from the SSW (210 degrees) at 5 MPH (4 knots; 2.1 m/s)
Visibility: 4 miles ( 6 km)
Ceiling: 1300 feet AGL
Clouds: broken clouds at 1300 feet AGL
few clouds at 1800 feet AGL
broken clouds at 9000 feet AGL
Weather: -RA  (light rain)

METAR text: VYYY 190830Z 21004KT 5000 -RA BKN013 FEW018CB BKN090 30/25 Q1004
Conditions at: VYYY (YANGON INTL MYAN, VN) observed 0830 UTC 19 July 2019
Temperature: 30.0°C (86°F)
Dewpoint: 25.0°C (77°F) [RH = 75%]
Pressure (altimeter): 29.65 inches Hg (1004.0 mb)
Winds: from the SSW (210 degrees) at 5 MPH (4 knots; 2.1 m/s)
Visibility: 3 miles ( 5 km)
Ceiling: 1300 feet AGL
Clouds: broken clouds at 1300 feet AGL
few clouds at 1800 feet AGL
broken clouds at 9000 feet AGL
Weather: -RA  (light rain)

METAR text: VYYY 190800Z 23008KT 7000 BKN015 FEW020CB 33/24 Q1004 NOSIG
Conditions at: VYYY (YANGON INTL MYAN, VN) observed 0800 UTC 19 July 2019
Temperature: 33.0°C (91°F)
Dewpoint: 24.0°C (75°F) [RH = 59%]
Pressure (altimeter): 29.65 inches Hg (1004.0 mb)
Winds: from the SW (230 degrees) at 9 MPH (8 knots; 4.1 m/s)
Visibility: 4 miles ( 7 km)
Ceiling: 1500 feet AGL
Clouds: broken clouds at 1500 feet AGL
few clouds at 2000 feet AGL
Weather: no significant weather observed at this time

METAR text: VYYY 190730Z 21008KT 7000 BKN015 FEW020CB 33/24 Q1004 NOSIG
Conditions at: VYYY (YANGON INTL MYAN, VN) observed 0730 UTC 19 July 2019
Temperature: 33.0°C (91°F)
Dewpoint: 24.0°C (75°F) [RH = 59%]
Pressure (altimeter): 29.65 inches Hg (1004.0 mb)
Winds: from the SSW (210 degrees) at 9 MPH (8 knots; 4.1 m/s)
Visibility: 4 miles ( 7 km)
Ceiling: 1500 feet AGL
Clouds: broken clouds at 1500 feet AGL
few clouds at 2000 feet AGL
Weather: no significant weather observed at this time

METAR text: VYYY 190700Z 20008KT 7000 BKN015 FEW020CB 32/25 Q1004 NOSIG
Conditions at: VYYY (YANGON INTL MYAN, VN) observed 0700 UTC 19 July 2019
Temperature: 32.0°C (90°F)
Dewpoint: 25.0°C (77°F) [RH = 67%]
Pressure (altimeter): 29.65 inches Hg (1004.0 mb)
Winds: from the SSW (200 degrees) at 9 MPH (8 knots; 4.1 m/s)
Visibility: 4 miles ( 7 km)
Ceiling: 1500 feet AGL
Clouds: broken clouds at 1500 feet AGL
few clouds at 2000 feet AGL
Weather: no significant weather observed at this time

METAR text: VYYY 190630Z 22004KT 7000 SCT015 FEW020CB 32/25 Q1005 NOSIG
Conditions at: VYYY (YANGON INTL MYAN, VN) observed 0630 UTC 19 July 2019
Temperature: 32.0°C (90°F)
Dewpoint: 25.0°C (77°F) [RH = 67%]
Pressure (altimeter): 29.68 inches Hg (1005.0 mb)
Winds: from the SW (220 degrees) at 5 MPH (4 knots; 2.1 m/s)
Visibility: 4 miles ( 7 km)
Ceiling: at least 12,000 feet AGL
Clouds: scattered clouds at 1500 feet AGL
few clouds at 2000 feet AGL
Weather: no significant weather observed at this time

METAR text: VYYY 190600Z 22005KT 7000 SCT015 FEW020TCU 32/25 Q1006 NOSIG
Conditions at: VYYY (YANGON INTL MYAN, VN) observed 0600 UTC 19 July 2019
Temperature: 32.0°C (90°F)
Dewpoint: 25.0°C (77°F) [RH = 67%]
Pressure (altimeter): 29.70 inches Hg (1006.0 mb)
Winds: from the SW (220 degrees) at 6 MPH (5 knots; 2.6 m/s)
Visibility: 4 miles ( 7 km)
Ceiling: at least 12,000 feet AGL
Clouds: scattered clouds at 1500 feet AGL
few clouds at 2000 feet AGL
Weather: no significant weather observed at this time

METAR text: VYYY 190530Z 24005KT 7000 BKN015 FEW020CB 32/25 Q1006 NOSIG
Conditions at: VYYY (YANGON INTL MYAN, VN) observed 0530 UTC 19 July 2019
Temperature: 32.0°C (90°F)
Dewpoint: 25.0°C (77°F) [RH = 67%]
Pressure (altimeter): 29.70 inches Hg (1006.0 mb)
Winds: from the WSW (240 degrees) at 6 MPH (5 knots; 2.6 m/s)
Visibility: 4 miles ( 7 km)
Ceiling: 1500 feet AGL
Clouds: broken clouds at 1500 feet AGL
few clouds at 2000 feet AGL
Weather: no significant weather observed at this time

METAR text: VYYY 190430Z 23006KT 7000 BKN016 FEW020CB 32/25 Q1006 NOSIG
Conditions at: VYYY (YANGON INTL MYAN, VN) observed 0430 UTC 19 July 2019
Temperature: 32.0°C (90°F)
Dewpoint: 25.0°C (77°F) [RH = 67%]
Pressure (altimeter): 29.70 inches Hg (1006.0 mb)
Winds: from the SW (230 degrees) at 7 MPH (6 knots; 3.1 m/s)
Visibility: 4 miles ( 7 km)
Ceiling: 1600 feet AGL
Clouds: broken clouds at 1600 feet AGL
few clouds at 2000 feet AGL
Weather: no significant weather observed at this time

METAR text: VYYY 190400Z 23006KT 7000 BKN016 FEW020CB 31/25 Q1006 NOSIG
Conditions at: VYYY (YANGON INTL MYAN, VN) observed 0400 UTC 19 July 2019
Temperature: 31.0°C (88°F)
Dewpoint: 25.0°C (77°F) [RH = 71%]
Pressure (altimeter): 29.70 inches Hg (1006.0 mb)
Winds: from the SW (230 degrees) at 7 MPH (6 knots; 3.1 m/s)
Visibility: 4 miles ( 7 km)
Ceiling: 1600 feet AGL
Clouds: broken clouds at 1600 feet AGL
few clouds at 2000 feet AGL
Weather: no significant weather observed at this time

METAR text: VYYY 190330Z 22006KT 7000 BKN016 FEW020CB 31/25 Q1006 NOSIG
Conditions at: VYYY (YANGON INTL MYAN, VN) observed 0330 UTC 19 July 2019
Temperature: 31.0°C (88°F)
Dewpoint: 25.0°C (77°F) [RH = 71%]
Pressure (altimeter): 29.70 inches Hg (1006.0 mb)
Winds: from the SW (220 degrees) at 7 MPH (6 knots; 3.1 m/s)
Visibility: 4 miles ( 7 km)
Ceiling: 1600 feet AGL
Clouds: broken clouds at 1600 feet AGL
few clouds at 2000 feet AGL
Weather: no significant weather observed at this time

METAR text: VYYY 190300Z 22005KT 7000 BKN016 FEW020CB 30/25 Q1006 NOSIG
Conditions at: VYYY (YANGON INTL MYAN, VN) observed 0300 UTC 19 July 2019
Temperature: 30.0°C (86°F)
Dewpoint: 25.0°C (77°F) [RH = 75%]
Pressure (altimeter): 29.70 inches Hg (1006.0 mb)
Winds: from the SW (220 degrees) at 6 MPH (5 knots; 2.6 m/s)
Visibility: 4 miles ( 7 km)
Ceiling: 1600 feet AGL
Clouds: broken clouds at 1600 feet AGL
few clouds at 2000 feet AGL
Weather: no significant weather observed at this time

METAR text: VYYY 190230Z 21006KT 7000 BKN016 FEW020CB 30/25 Q1005 NOSIG
Conditions at: VYYY (YANGON INTL MYAN, VN) observed 0230 UTC 19 July 2019
Temperature: 30.0°C (86°F)
Dewpoint: 25.0°C (77°F) [RH = 75%]
Pressure (altimeter): 29.68 inches Hg (1005.0 mb)
Winds: from the SSW (210 degrees) at 7 MPH (6 knots; 3.1 m/s)
Visibility: 4 miles ( 7 km)
Ceiling: 1600 feet AGL
Clouds: broken clouds at 1600 feet AGL
few clouds at 2000 feet AGL
Weather: no significant weather observed at this time

METAR text: VYYY 190200Z 20005KT 7000 BKN016 FEW020CB 29/24 Q1005 NOSIG
Conditions at: VYYY (YANGON INTL MYAN, VN) observed 0200 UTC 19 July 2019
Temperature: 29.0°C (84°F)
Dewpoint: 24.0°C (75°F) [RH = 74%]
Pressure (altimeter): 29.68 inches Hg (1005.0 mb)
Winds: from the SSW (200 degrees) at 6 MPH (5 knots; 2.6 m/s)
Visibility: 4 miles ( 7 km)
Ceiling: 1600 feet AGL
Clouds: broken clouds at 1600 feet AGL
few clouds at 2000 feet AGL
Weather: no significant weather observed at this time

Forecast for: VYYY (YANGON INTL MYAN, VN)
Text: TAF VYYY 201100Z 2012/2112 18006KT 7000 SCT018 FEW020CB BKN110
Forecast period: 1200 UTC 20 July 2019 to 1200 UTC 21 July 2019
Forecast type: FROM: standard forecast or significant change
Winds: from the S (180 degrees) at 7 MPH (6 knots; 3.1 m/s)
Visibility: 4 miles (7 km)
Ceiling: 11000 feet AGL
Clouds: scattered clouds at 1800 feet AGL
few clouds at 2000 feet AGL
broken clouds at 11000 feet AGL
Weather: no significant weather forecast for this period
Text: TEMPO 2012/2018 22006KT 4000 -TSRA BKN015 FEW018CB BKN080
Forecast period: 1200 to 1800 UTC 20 July 2019
Forecast type: TEMPORARY: The following changes expected for less than half the time period
Winds: from the SW (220 degrees) at 7 MPH (6 knots; 3.1 m/s)
Visibility: 2.49 miles (4.01 km)
Ceiling: 1500 feet AGL
Clouds: broken clouds at 1500 feet AGL
few clouds at 1800 feet AGL
broken clouds at 8000 feet AGL
Weather: -TSRA  (light rain associated with thunderstorm(s))